Time;durP1;ratioP1;P1;durP2;ratioP2;P2;SDS_P1;SDS_P2;PMS_P1;PMS_P2;Temp;Humidity;BMP_temperature;BMP_pressure;BME280_temperature;BME280_humidity;BME280_pressure;Samples;Min_cycle;Max_cycle;Signal;HPM_P1;HPM_P2
2023/10/02 00:01:17;;;;;;;7.47;2.00;;;10.80;99.90;;;;;;4970931;28;20192;-80
2023/10/02 00:03:48;;;;;;;3.45;1.40;;;10.80;99.90;;;;;;4964068;28;20295;-79
2023/10/02 00:06:16;;;;;;;4.22;1.40;;;10.80;99.90;;;;;;4963081;28;20656;-79
2023/10/02 00:08:49;;;;;;;4.78;1.60;;;10.70;99.90;;;;;;4971322;28;20208;-80
2023/10/02 00:11:41;;;;;;;6.32;1.40;;;10.80;99.90;;;;;;4971318;28;20198;-79
2023/10/02 00:14:19;;;;;;;4.85;1.40;;;11.00;99.90;;;;;;4970749;28;20238;-80
2023/10/02 00:17:06;;;;;;;7.65;1.60;;;11.00;99.90;;;;;;4970614;28;20191;-79
2023/10/02 00:19:35;;;;;;;4.47;1.73;;;10.90;99.90;;;;;;4952701;28;20195;-79
2023/10/02 00:22:07;;;;;;;2.63;1.42;;;11.00;99.90;;;;;;4969495;28;20228;-80
2023/10/02 00:24:40;;;;;;;5.22;1.55;;;11.00;99.90;;;;;;4969331;28;20314;-80
2023/10/02 00:27:09;;;;;;;10.20;2.22;;;10.90;99.90;;;;;;4951560;28;20565;-80
2023/10/02 00:29:57;;;;;;;7.00;1.83;;;11.00;99.90;;;;;;4970528;28;20192;-79
2023/10/02 00:32:26;;;;;;;8.48;2.15;;;11.00;99.90;;;;;;4930346;29;20200;-80
2023/10/02 00:34:54;;;;;;;8.55;1.70;;;10.90;99.90;;;;;;4930625;29;20199;-79
2023/10/02 00:37:24;;;;;;;6.60;2.00;;;11.00;99.90;;;;;;4930661;29;20217;-79
2023/10/02 00:39:52;;;;;;;10.15;1.88;;;11.10;99.90;;;;;;4931956;29;20198;-79
2023/10/02 00:44:55;;;;;;;8.35;1.90;;;11.00;99.90;;;;;;4931796;29;20181;-80
2023/10/02 00:47:41;;;;;;;9.75;1.88;;;11.00;99.90;;;;;;4930584;29;20200;-80
2023/10/02 00:50:14;;;;;;;8.65;1.98;;;11.10;99.90;;;;;;4928639;29;20189;-79
2023/10/02 00:52:55;;;;;;;11.38;2.30;;;11.10;99.90;;;;;;4930707;29;20284;-80
2023/10/02 00:55:32;;;;;;;8.00;1.98;;;11.20;99.90;;;;;;4931824;29;20204;-79
2023/10/02 00:58:05;;;;;;;8.35;1.80;;;11.10;99.90;;;;;;4931752;29;20232;-79
2023/10/02 01:00:42;;;;;;;7.00;1.80;;;11.10;99.90;;;;;;4930626;29;20240;-79
2023/10/02 01:03:17;;;;;;;5.75;2.05;;;11.10;99.90;;;;;;4931785;29;20713;-80
2023/10/02 01:05:50;;;;;;;5.93;2.00;;;11.20;99.90;;;;;;4931828;29;20196;-80
2023/10/02 01:08:24;;;;;;;7.80;2.03;;;11.20;99.90;;;;;;4931277;29;20201;-80
2023/10/02 01:10:59;;;;;;;7.20;1.52;;;11.20;99.90;;;;;;4930832;29;20304;-79
2023/10/02 01:13:35;;;;;;;4.03;1.27;;;11.20;99.90;;;;;;4934590;29;20196;-79
2023/10/02 01:16:08;;;;;;;4.80;1.50;;;11.20;99.90;;;;;;4921185;29;20197;-79
2023/10/02 01:18:37;;;;;;;4.63;1.55;;;11.20;99.90;;;;;;4934959;29;20204;-80
2023/10/02 01:21:12;;;;;;;4.15;1.63;;;11.30;99.90;;;;;;4931449;29;20200;-80
2023/10/02 01:24:10;;;;;;;8.13;2.35;;;11.30;99.90;;;;;;4930785;29;20679;-79
2023/10/02 01:26:38;;;;;;;9.40;2.00;;;11.20;99.90;;;;;;4931403;29;20195;-80
2023/10/02 01:29:06;;;;;;;8.02;1.60;;;11.30;99.90;;;;;;4942805;29;20652;-80
2023/10/02 01:31:51;;;;;;;8.82;1.92;;;11.30;99.90;;;;;;4930095;29;20225;-80
2023/10/02 01:34:34;;;;;;;7.55;1.90;;;11.30;99.90;;;;;;4927344;29;20679;-80
2023/10/02 01:37:32;;;;;;;6.47;1.60;;;11.20;99.90;;;;;;4935140;29;20885;-80
2023/10/02 01:39:49;;;;;;;5.22;1.92;;;11.20;99.90;;;;;;4927262;29;20213;-79
2023/10/02 01:42:17;;;;;;;6.10;1.45;;;11.30;99.90;;;;;;4933437;29;20296;-80
2023/10/02 01:44:55;;;;;;;8.38;1.80;;;11.20;99.90;;;;;;4933418;29;20209;-80
2023/10/02 01:47:24;;;;;;;8.02;2.05;;;11.30;99.90;;;;;;4915459;29;20237;-79
2023/10/02 01:50:00;;;;;;;5.85;1.95;;;11.30;99.90;;;;;;4931051;29;20202;-79
2023/10/02 01:52:30;;;;;;;5.75;2.15;;;11.30;99.90;;;;;;4929165;29;20181;-79
2023/10/02 01:55:29;;;;;;;6.28;1.63;;;11.30;99.90;;;;;;4934771;29;20193;-80
2023/10/02 01:58:16;;;;;;;9.05;2.08;;;11.20;99.90;;;;;;4933188;29;20237;-79
2023/10/02 02:00:45;;;;;;;6.72;1.88;;;11.20;99.90;;;;;;4933158;29;20603;-80
2023/10/02 02:03:16;;;;;;;6.68;2.30;;;11.30;99.90;;;;;;4943688;29;20664;-79
2023/10/02 02:05:46;;;;;;;5.90;1.77;;;11.20;99.90;;;;;;4933333;29;20221;-79
2023/10/02 02:08:23;;;;;;;8.02;2.00;;;11.30;99.90;;;;;;4933208;29;20201;-80
2023/10/02 02:10:53;;;;;;;5.32;1.75;;;11.30;99.90;;;;;;4937260;29;20206;-79
2023/10/02 02:13:22;;;;;;;8.93;2.30;;;11.30;99.90;;;;;;4932885;29;20205;-80
2023/10/02 02:16:07;;;;;;;8.20;2.28;;;11.30;99.90;;;;;;4933340;29;20224;-80
2023/10/02 02:18:35;;;;;;;6.15;1.88;;;11.30;99.90;;;;;;4931108;29;20214;-79
2023/10/02 02:21:03;;;;;;;8.27;2.10;;;11.20;99.90;;;;;;4933039;29;20217;-79
2023/10/02 02:23:32;;;;;;;5.00;1.80;;;11.10;99.90;;;;;;4930439;29;20553;-79
2023/10/02 02:25:59;;;;;;;4.72;2.15;;;11.20;99.90;;;;;;4926442;29;20209;-80
2023/10/02 02:28:28;;;;;;;4.38;1.85;;;11.20;99.90;;;;;;4934119;29;20185;-80
2023/10/02 02:30:56;;;;;;;8.77;2.13;;;11.10;99.90;;;;;;4932488;29;20261;-80
2023/10/02 02:33:38;;;;;;;6.80;2.15;;;11.00;99.90;;;;;;4932777;29;20540;-79
2023/10/02 02:36:06;;;;;;;6.93;2.38;;;11.10;99.90;;;;;;4927388;29;20193;-80
2023/10/02 02:38:33;;;;;;;9.00;2.60;;;11.00;99.90;;;;;;4925803;29;20201;-79
2023/10/02 02:41:07;;;;;;;10.95;2.28;;;11.00;99.90;;;;;;4933881;29;20190;-80
2023/10/02 02:43:38;;;;;;;8.05;2.10;;;11.10;99.90;;;;;;4933469;29;20216;-79
2023/10/02 02:46:17;;;;;;;8.77;2.47;;;11.10;99.90;;;;;;4930215;29;20186;-79
2023/10/02 02:48:45;;;;;;;8.20;2.42;;;11.10;99.90;;;;;;4930300;29;20268;-79
2023/10/02 02:51:15;;;;;;;5.70;2.38;;;11.10;99.90;;;;;;4933797;29;20208;-81
2023/10/02 02:53:43;;;;;;;8.00;2.50;;;11.10;99.90;;;;;;4934059;29;20276;-79
2023/10/02 02:56:22;;;;;;;9.32;2.53;;;11.10;99.90;;;;;;4933809;29;20225;-79
2023/10/02 02:58:55;;;;;;;6.03;2.28;;;11.10;99.90;;;;;;4934541;29;20189;-79
2023/10/02 03:01:24;;;;;;;6.75;2.22;;;11.10;99.90;;;;;;4932496;29;20225;-79
2023/10/02 03:03:56;;;;;;;8.35;2.30;;;11.10;99.90;;;;;;4933719;29;20211;-80
2023/10/02 03:06:24;;;;;;;8.68;2.65;;;11.00;99.90;;;;;;4933711;29;20723;-79
2023/10/02 03:08:53;;;;;;;7.82;2.28;;;11.10;99.90;;;;;;4933233;29;20600;-80
2023/10/02 03:11:22;;;;;;;10.02;2.90;;;11.20;99.90;;;;;;4931619;29;20197;-79
2023/10/02 03:13:51;;;;;;;7.63;2.58;;;11.10;99.90;;;;;;4933287;29;20190;-79
2023/10/02 03:16:29;;;;;;;5.88;1.90;;;11.00;99.90;;;;;;4929009;29;20206;-79
2023/10/02 03:19:03;;;;;;;5.97;2.15;;;11.00;99.90;;;;;;4948043;29;20648;-79
2023/10/02 03:21:31;;;;;;;9.65;2.75;;;10.90;99.90;;;;;;4933806;29;20723;-80
2023/10/02 03:24:01;;;;;;;6.57;2.55;;;10.90;99.90;;;;;;4931775;29;20213;-79
2023/10/02 03:29:05;;;;;;;4.75;2.20;;;10.90;99.90;;;;;;4928846;29;20200;-79
2023/10/02 03:31:37;;;;;;;5.40;2.10;;;11.00;99.90;;;;;;4957935;28;20259;-80
2023/10/02 03:39:59;;;;;;;5.88;2.17;;;10.90;99.90;;;;;;4953694;28;20286;-79
2023/10/02 03:42:32;;;;;;;4.85;1.95;;;10.80;99.90;;;;;;4950595;28;20279;-79
2023/10/02 03:45:04;;;;;;;5.97;2.60;;;10.70;99.90;;;;;;4971657;28;20211;-79
2023/10/02 03:47:35;;;;;;;8.20;2.08;;;10.70;99.90;;;;;;4971381;28;20191;-80
2023/10/02 03:50:12;;;;;;;7.22;2.00;;;10.70;99.90;;;;;;4950520;29;20189;-80
2023/10/02 03:52:45;;;;;;;9.93;2.33;;;10.70;99.90;;;;;;4951580;28;20191;-79
2023/10/02 03:55:17;;;;;;;4.28;2.13;;;10.60;99.90;;;;;;4970838;28;20196;-80
2023/10/02 03:57:52;;;;;;;7.18;2.40;;;10.60;99.90;;;;;;4960076;28;20673;-79
2023/10/02 04:00:27;;;;;;;3.58;1.85;;;10.60;99.90;;;;;;4970841;28;20206;-79
2023/10/02 04:02:56;;;;;;;7.78;2.50;;;10.70;99.90;;;;;;4943604;28;20565;-78
2023/10/02 04:05:32;;;;;;;5.28;2.10;;;10.60;99.90;;;;;;4966559;28;20315;-79
2023/10/02 04:08:21;;;;;;;5.80;2.20;;;10.60;99.90;;;;;;4971326;28;20718;-79
2023/10/02 04:11:03;;;;;;;4.30;2.20;;;10.60;99.90;;;;;;4970749;28;20243;-81
2023/10/02 04:13:34;;;;;;;7.55;2.30;;;10.60;99.90;;;;;;4970932;28;20242;-78
2023/10/02 04:18:58;;;;;;;5.40;2.20;;;10.50;99.90;;;;;;4971108;28;20211;-79
2023/10/02 04:21:28;;;;;;;3.15;1.88;;;10.70;99.90;;;;;;4967995;28;20188;-80
2023/10/02 04:23:57;;;;;;;8.98;2.35;;;10.60;99.90;;;;;;4970934;28;20281;-79
2023/10/02 04:26:28;;;;;;;4.57;1.90;;;10.70;99.90;;;;;;4967774;28;20262;-79
2023/10/02 04:29:09;;;;;;;6.57;2.10;;;10.80;99.90;;;;;;4968417;28;20212;-79
2023/10/02 04:31:41;;;;;;;3.65;2.00;;;10.80;99.90;;;;;;4966088;28;20644;-80
2023/10/02 04:34:23;;;;;;;6.82;2.00;;;10.80;99.90;;;;;;4956801;28;20196;-79
2023/10/02 04:36:51;;;;;;;3.95;1.92;;;10.80;99.90;;;;;;4953514;28;20621;-80
2023/10/02 04:44:48;;;;;;;4.60;1.77;;;10.70;99.90;;;;;;4971174;28;20761;-80
2023/10/02 04:47:17;;;;;;;6.25;2.17;;;10.60;99.90;;;;;;4949900;29;20252;-80
2023/10/02 04:52:53;;;;;;;8.05;2.00;;;10.70;99.90;;;;;;4952595;28;20773;-81
2023/10/02 04:55:31;;;;;;;4.78;2.10;;;10.70;99.90;;;;;;4943460;28;20625;-81
2023/10/02 04:58:08;;;;;;;7.53;2.28;;;10.60;99.90;;;;;;4962279;28;20188;-80
2023/10/02 05:01:00;;;;;;;5.93;1.85;;;10.60;99.90;;;;;;4970263;28;20200;-80
2023/10/02 05:03:28;;;;;;;5.07;1.95;;;10.70;99.90;;;;;;4969538;28;20192;-81
2023/10/02 05:05:58;;;;;;;5.18;2.10;;;10.70;99.90;;;;;;4949594;28;20557;-80
2023/10/02 05:08:34;;;;;;;4.10;1.90;;;10.70;99.90;;;;;;4956255;28;20620;-80
2023/10/02 05:11:07;;;;;;;4.15;1.80;;;10.70;99.90;;;;;;4955268;28;20881;-81
2023/10/02 05:16:29;;;;;;;3.92;1.70;;;10.60;99.90;;;;;;4975613;28;20196;-80
2023/10/02 05:18:57;;;;;;;4.63;1.77;;;10.70;99.90;;;;;;4958917;28;20214;-80
2023/10/02 05:21:49;;;;;;;3.88;1.65;;;10.70;99.90;;;;;;4975186;28;20267;-80
2023/10/02 05:24:18;;;;;;;3.25;1.70;;;10.70;99.90;;;;;;4968403;28;20195;-80
2023/10/02 05:26:47;;;;;;;4.00;1.63;;;10.70;99.90;;;;;;4976137;28;20183;-79
2023/10/02 05:29:36;;;;;;;4.07;1.95;;;10.60;99.90;;;;;;4963758;28;20196;-79
2023/10/02 05:32:19;;;;;;;3.90;1.70;;;10.60;99.90;;;;;;4972214;28;20219;-81
2023/10/02 05:35:05;;;;;;;4.13;1.98;;;10.70;99.90;;;;;;4963001;28;20184;-80
2023/10/02 05:37:42;;;;;;;4.85;1.73;;;10.70;99.90;;;;;;4967955;28;20278;-80
2023/10/02 05:50:57;;;;;;;9.23;2.63;;;10.50;99.90;;;;;;4975720;28;20183;-81
2023/10/02 05:53:29;;;;;;;4.18;1.75;;;10.50;99.90;;;;;;4974932;28;20188;-80
2023/10/02 05:55:57;;;;;;;3.17;1.58;;;10.50;99.90;;;;;;4942603;28;20282;-80
2023/10/02 05:58:30;;;;;;;3.85;1.75;;;10.50;99.90;;;;;;4975958;28;20203;-81
2023/10/02 06:01:06;;;;;;;3.38;1.67;;;10.40;99.90;;;;;;4975837;28;20251;-80
2023/10/02 06:03:36;;;;;;;3.75;1.83;;;10.60;99.90;;;;;;4955701;28;20198;-80
2023/10/02 06:06:18;;;;;;;3.53;1.60;;;10.50;99.90;;;;;;4974278;28;20219;-79
2023/10/02 06:09:02;;;;;;;2.47;1.48;;;10.40;99.90;;;;;;4950430;28;20206;-80
2023/10/02 06:11:34;;;;;;;4.50;1.55;;;10.50;99.90;;;;;;4952272;28;20250;-80
2023/10/02 06:14:09;;;;;;;5.03;1.98;;;10.50;99.90;;;;;;4950804;28;20307;-80
2023/10/02 06:16:42;;;;;;;4.05;1.65;;;10.50;99.90;;;;;;4975979;28;20188;-80
2023/10/02 06:19:14;;;;;;;3.42;1.73;;;10.50;99.90;;;;;;4974513;28;20194;-80
2023/10/02 06:21:46;;;;;;;3.63;1.52;;;10.50;99.90;;;;;;4972885;28;20904;-80
2023/10/02 06:24:18;;;;;;;2.58;1.42;;;10.40;99.90;;;;;;4973032;28;20214;-80
2023/10/02 06:26:58;;;;;;;3.25;1.77;;;10.50;99.90;;;;;;4972685;28;20191;-80
2023/10/02 06:29:31;;;;;;;3.63;1.67;;;10.40;99.90;;;;;;4972831;28;20195;-81
2023/10/02 06:32:02;;;;;;;4.47;1.85;;;10.40;99.90;;;;;;4972599;28;20613;-80
2023/10/02 06:34:38;;;;;;;4.43;1.75;;;10.50;99.90;;;;;;4972454;28;20191;-80
2023/10/02 06:37:13;;;;;;;5.10;1.65;;;10.40;99.90;;;;;;4969433;28;20227;-80
2023/10/02 06:39:42;;;;;;;3.67;1.60;;;10.40;99.90;;;;;;4971884;28;20560;-80
2023/10/02 06:42:15;;;;;;;6.00;1.52;;;10.50;99.90;;;;;;4968693;28;20230;-80
2023/10/02 06:44:53;;;;;;;4.45;1.73;;;10.50;99.90;;;;;;4972280;28;20216;-80
2023/10/02 06:47:23;;;;;;;3.92;1.70;;;10.50;99.90;;;;;;4968111;28;20190;-80
2023/10/02 06:49:52;;;;;;;4.22;2.22;;;10.50;99.90;;;;;;4972775;28;20203;-80
2023/10/02 06:52:21;;;;;;;3.67;1.95;;;10.50;99.90;;;;;;4955175;28;20188;-80
2023/10/02 06:54:49;;;;;;;6.18;2.28;;;10.50;99.90;;;;;;4972237;28;20198;-78
2023/10/02 06:57:18;;;;;;;4.03;1.95;;;10.50;99.90;;;;;;4972352;28;20200;-80
2023/10/02 06:59:53;;;;;;;7.93;2.80;;;10.40;99.90;;;;;;4972032;28;20227;-80
2023/10/02 07:02:24;;;;;;;7.45;2.40;;;10.30;99.90;;;;;;4954587;28;20196;-80
2023/10/02 07:04:56;;;;;;;3.83;2.13;;;10.40;99.90;;;;;;4972213;28;20204;-79
2023/10/02 07:07:29;;;;;;;5.00;2.05;;;10.40;99.90;;;;;;4972006;28;20275;-80
2023/10/02 07:10:07;;;;;;;3.97;1.77;;;10.50;99.90;;;;;;4972220;28;20185;-82
2023/10/02 07:12:40;;;;;;;4.30;2.28;;;10.50;99.90;;;;;;4955210;28;20188;-79
2023/10/02 07:15:12;;;;;;;7.63;1.83;;;10.40;99.90;;;;;;4954084;28;20553;-81
2023/10/02 07:17:47;;;;;;;5.40;2.58;;;10.30;99.90;;;;;;4954102;28;20311;-80
2023/10/02 07:20:20;;;;;;;4.82;2.25;;;10.30;99.90;;;;;;4971917;28;20202;-81
2023/10/02 07:22:51;;;;;;;5.88;2.47;;;10.30;99.90;;;;;;4954668;28;20659;-80
2023/10/02 07:25:24;;;;;;;3.83;2.00;;;10.20;99.90;;;;;;4959379;28;20235;-80
2023/10/02 07:27:52;;;;;;;5.38;2.50;;;10.30;99.90;;;;;;4953866;28;20239;-81
2023/10/02 07:30:27;;;;;;;4.35;2.20;;;10.30;99.90;;;;;;4953764;28;20211;-79
2023/10/02 07:33:02;;;;;;;5.97;2.63;;;10.30;99.90;;;;;;4972263;28;20194;-80
2023/10/02 07:35:33;;;;;;;3.78;2.03;;;10.20;99.90;;;;;;4964561;28;20199;-80
2023/10/02 07:38:02;;;;;;;6.03;2.40;;;10.20;99.90;;;;;;4971021;28;20206;-80
2023/10/02 07:40:49;;;;;;;6.18;2.13;;;10.20;99.90;;;;;;4954072;28;20300;-80
2023/10/02 07:43:19;;;;;;;8.45;3.58;;;10.20;99.90;;;;;;4971687;28;20223;-80
2023/10/02 07:48:35;;;;;;;8.05;2.78;;;10.20;99.90;;;;;;4971157;28;20188;-80
2023/10/02 07:51:06;;;;;;;9.85;3.28;;;10.30;99.90;;;;;;4953218;28;20195;-80
2023/10/02 07:53:40;;;;;;;8.07;3.28;;;10.30;99.90;;;;;;4950201;29;20241;-80
2023/10/02 07:56:11;;;;;;;6.45;3.38;;;10.40;99.90;;;;;;4960142;28;20287;-81
2023/10/02 07:58:41;;;;;;;5.70;2.85;;;10.40;99.90;;;;;;4951010;28;20646;-80
2023/10/02 08:01:12;;;;;;;8.05;3.80;;;10.40;99.90;;;;;;4952546;28;20227;-81
2023/10/02 08:03:43;;;;;;;5.38;2.83;;;10.50;99.90;;;;;;4953719;28;20196;-80
2023/10/02 08:06:23;;;;;;;16.27;4.18;;;10.50;99.90;;;;;;4950223;29;20204;-80
2023/10/02 08:11:45;;;;;;;8.57;3.83;;;10.50;99.90;;;;;;4970964;28;20195;-80
2023/10/02 08:14:57;;;;;;;10.63;3.38;;;10.60;99.90;;;;;;4970631;28;20665;-80
2023/10/02 08:17:21;;;;;;;9.43;4.43;;;10.50;99.90;;;;;;4963094;28;20227;-80
2023/10/02 08:19:58;;;;;;;7.63;3.15;;;10.60;99.90;;;;;;4971058;28;20215;-81
2023/10/02 08:22:35;;;;;;;7.13;3.60;;;10.60;99.90;;;;;;4970635;28;20199;-80
2023/10/02 08:25:13;;;;;;;8.18;3.55;;;10.60;99.90;;;;;;4970369;28;20204;-81
2023/10/02 08:27:55;;;;;;;10.50;3.30;;;10.60;99.90;;;;;;4970415;28;20601;-80
2023/10/02 08:30:28;;;;;;;7.25;3.38;;;10.70;99.90;;;;;;4970827;28;20753;-81
2023/10/02 08:33:11;;;;;;;5.35;3.13;;;10.70;99.90;;;;;;4970422;28;20188;-81
2023/10/02 08:36:01;;;;;;;9.38;3.85;;;10.80;99.90;;;;;;4958151;28;20187;-80
2023/10/02 08:38:28;;;;;;;10.02;3.35;;;10.80;99.90;;;;;;4970257;28;20267;-80
2023/10/02 08:41:03;;;;;;;7.38;3.22;;;10.90;99.90;;;;;;4970159;28;20202;-80
2023/10/02 08:44:05;;;;;;;9.80;4.30;;;10.90;99.90;;;;;;4959770;28;20611;-80
2023/10/02 08:46:25;;;;;;;11.93;4.63;;;10.90;99.90;;;;;;4958724;28;20566;-80
2023/10/02 08:48:55;;;;;;;6.78;3.72;;;10.90;99.90;;;;;;4960293;28;20180;-81
2023/10/02 08:51:33;;;;;;;10.10;3.72;;;10.90;99.90;;;;;;4966462;28;20195;-80
2023/10/02 08:54:05;;;;;;;12.13;5.07;;;10.90;99.90;;;;;;4970566;28;20250;-80
2023/10/02 08:56:43;;;;;;;10.40;3.63;;;10.80;99.90;;;;;;4953016;28;20663;-81
2023/10/02 08:59:16;;;;;;;12.80;4.72;;;10.80;99.90;;;;;;4944116;29;20822;-81
2023/10/02 09:01:47;;;;;;;9.98;4.65;;;10.90;99.90;;;;;;4967953;28;20196;-80
2023/10/02 09:04:28;;;;;;;12.07;4.00;;;10.80;99.90;;;;;;4970574;28;20254;-81
2023/10/02 09:06:59;;;;;;;8.10;3.65;;;10.80;99.90;;;;;;4970693;28;20266;-81
2023/10/02 09:12:03;;;;;;;9.18;3.40;;;11.00;99.90;;;;;;4969893;28;20191;-81
2023/10/02 09:14:39;;;;;;;7.50;3.63;;;11.00;99.90;;;;;;4961407;28;20188;-80
2023/10/02 09:17:16;;;;;;;9.02;3.15;;;11.00;99.90;;;;;;4941165;28;20571;-80
2023/10/02 09:19:53;;;;;;;7.78;2.70;;;11.00;99.90;;;;;;4952187;28;20196;-80
2023/10/02 09:22:23;;;;;;;7.75;3.13;;;11.10;99.90;;;;;;4952877;28;20195;-80
2023/10/02 09:25:26;;;;;;;9.32;3.58;;;11.10;99.90;;;;;;4948308;28;20180;-80
2023/10/02 09:27:59;;;;;;;10.07;4.15;;;11.30;99.90;;;;;;4968605;28;20195;-80
2023/10/02 09:30:36;;;;;;;10.77;4.30;;;11.10;99.90;;;;;;4969389;28;20223;-80
2023/10/02 09:33:22;;;;;;;8.52;3.80;;;11.20;99.90;;;;;;4952292;28;20203;-80
2023/10/02 09:36:19;;;;;;;8.13;3.50;;;11.20;99.90;;;;;;4952252;28;20215;-81
2023/10/02 09:39:31;;;;;;;7.25;3.35;;;11.30;99.90;;;;;;4966777;28;20248;-81
2023/10/02 09:42:05;;;;;;;10.30;3.50;;;11.30;99.90;;;;;;4969678;28;20192;-81
2023/10/02 09:44:40;;;;;;;9.20;3.78;;;11.40;99.90;;;;;;4952654;28;20243;-81
2023/10/02 09:47:08;;;;;;;10.43;3.17;;;11.50;99.90;;;;;;4960274;28;20681;-81
2023/10/02 09:49:50;;;;;;;7.85;3.13;;;11.60;99.90;;;;;;4970118;28;20195;-81
2023/10/02 09:52:33;;;;;;;11.45;3.78;;;11.60;99.90;;;;;;4969986;28;20538;-81
2023/10/02 09:55:04;;;;;;;7.03;2.83;;;11.60;99.90;;;;;;4973061;28;20184;-81
2023/10/02 09:57:36;;;;;;;5.85;2.50;;;11.60;99.90;;;;;;4961224;28;20211;-81
2023/10/02 10:03:33;;;;;;;7.18;2.78;;;11.70;99.90;;;;;;4973202;28;20681;-81
2023/10/02 10:06:15;;;;;;;6.57;2.58;;;11.70;99.90;;;;;;4894053;29;20278;-81
2023/10/02 10:11:44;;;;;;;10.90;3.35;;;11.70;99.90;;;;;;4954271;28;20279;-80
2023/10/02 10:14:37;;;;;;;8.45;2.85;;;11.90;99.90;;;;;;4968415;28;20212;-81
2023/10/02 10:20:22;;;;;;;6.82;2.65;;;11.90;99.90;;;;;;4967238;28;20334;-80
2023/10/02 10:22:56;;;;;;;9.50;3.00;;;12.00;99.90;;;;;;4969197;28;20180;-79
2023/10/02 10:25:32;;;;;;;9.85;2.90;;;12.10;99.90;;;;;;4936002;28;20295;-81
2023/10/02 10:28:05;;;;;;;8.40;2.80;;;12.10;99.90;;;;;;4970605;28;20180;-81
2023/10/02 10:35:48;;;;;;;6.97;2.80;;;12.10;99.90;;;;;;4971130;28;20666;-81
2023/10/02 10:41:01;;;;;;;6.32;2.67;;;12.30;99.90;;;;;;4946902;28;20196;-81
2023/10/02 10:43:55;;;;;;;7.10;2.83;;;12.40;99.90;;;;;;4970440;28;20192;-81
2023/10/02 10:46:27;;;;;;;7.18;2.72;;;12.40;99.90;;;;;;4970651;28;20588;-81
2023/10/02 10:49:08;;;;;;;11.68;3.47;;;12.30;99.90;;;;;;4965871;28;20192;-81
2023/10/02 10:51:39;;;;;;;7.55;2.97;;;12.20;99.90;;;;;;4950414;28;20194;-81
2023/10/02 10:54:25;;;;;;;8.55;3.15;;;12.20;99.90;;;;;;4972574;28;20188;-81
2023/10/02 10:57:22;;;;;;;11.60;2.78;;;12.20;99.90;;;;;;4971286;28;20721;-81
2023/10/02 11:00:27;;;;;;;7.80;3.17;;;12.20;99.90;;;;;;4948164;28;20710;-81
2023/10/02 11:03:08;;;;;;;8.35;2.85;;;12.20;99.90;;;;;;4948475;28;20198;-81
2023/10/02 11:05:37;;;;;;;9.25;3.30;;;12.30;99.90;;;;;;4947911;28;20667;-81
2023/10/02 11:08:25;;;;;;;10.77;3.25;;;12.30;99.90;;;;;;4965790;28;20184;-81
2023/10/02 11:11:03;;;;;;;8.77;2.95;;;12.30;99.90;;;;;;4969021;28;20528;-81
2023/10/02 11:13:58;;;;;;;9.00;2.83;;;12.30;99.90;;;;;;4966411;28;20195;-81
2023/10/02 11:16:34;;;;;;;10.90;3.90;;;12.30;99.90;;;;;;4971391;28;20663;-81
2023/10/02 11:22:14;;;;;;;7.43;2.92;;;12.30;99.90;;;;;;4971275;28;20192;-81
2023/10/02 11:24:51;;;;;;;9.82;2.78;;;12.30;99.90;;;;;;4964459;28;20206;-81
2023/10/02 11:27:22;;;;;;;11.05;3.05;;;12.30;99.90;;;;;;4952818;28;20221;-81
2023/10/02 11:30:01;;;;;;;10.25;2.67;;;12.40;99.90;;;;;;4969270;28;20188;-81
2023/10/02 11:33:00;;;;;;;8.00;2.83;;;12.40;99.90;;;;;;4971517;28;20278;-80
2023/10/02 11:35:37;;;;;;;10.32;3.53;;;12.50;99.90;;;;;;4971533;28;20394;-82
2023/10/02 11:38:07;;;;;;;9.70;3.28;;;12.50;99.90;;;;;;4971325;28;20192;-81
2023/10/02 11:40:36;;;;;;;8.52;2.80;;;12.60;99.90;;;;;;4971373;28;20184;-81
2023/10/02 11:43:03;;;;;;;12.50;3.55;;;12.70;99.90;;;;;;4969823;28;20667;-81
2023/10/02 11:45:33;;;;;;;11.30;3.22;;;12.70;99.90;;;;;;4970689;28;20192;-81
2023/10/02 11:48:01;;;;;;;7.60;2.35;;;12.70;99.90;;;;;;4971758;28;20555;-82
2023/10/02 11:50:28;;;;;;;7.53;2.75;;;12.80;99.90;;;;;;4968388;28;20273;-81
2023/10/02 11:52:56;;;;;;;9.82;2.85;;;12.70;99.90;;;;;;4966971;28;20207;-80
2023/10/02 11:55:24;;;;;;;11.98;3.33;;;12.80;99.90;;;;;;4953313;28;20192;-81
2023/10/02 11:57:54;;;;;;;6.80;2.95;;;12.80;99.90;;;;;;4964633;28;20207;-81
2023/10/02 12:00:24;;;;;;;10.70;3.83;;;12.80;99.90;;;;;;4945277;28;20195;-81
2023/10/02 12:02:51;;;;;;;11.73;3.75;;;12.80;99.90;;;;;;4969384;28;20198;-81
2023/10/02 12:05:19;;;;;;;13.73;3.53;;;12.90;99.90;;;;;;4969010;28;20284;-81
2023/10/02 12:07:47;;;;;;;9.00;3.08;;;12.90;99.90;;;;;;4969796;28;20192;-81
2023/10/02 12:10:15;;;;;;;12.27;3.28;;;12.90;99.90;;;;;;4970842;28;20227;-82
2023/10/02 12:12:45;;;;;;;11.20;3.30;;;12.90;99.90;;;;;;4971133;28;20188;-81
2023/10/02 12:15:15;;;;;;;10.68;3.38;;;12.90;99.90;;;;;;4970886;28;20188;-81
2023/10/02 12:17:44;;;;;;;11.65;3.78;;;12.90;99.90;;;;;;4970755;28;20196;-81
2023/10/02 12:20:16;;;;;;;10.13;3.42;;;12.90;99.90;;;;;;4971140;28;20187;-81
2023/10/02 12:22:47;;;;;;;10.63;3.58;;;12.90;99.90;;;;;;4953792;28;20187;-82
2023/10/02 12:25:15;;;;;;;10.52;3.70;;;13.00;99.90;;;;;;4970509;28;20188;-81
2023/10/02 12:27:44;;;;;;;9.65;3.42;;;13.00;99.90;;;;;;4968184;28;20206;-82
2023/10/02 12:30:13;;;;;;;9.10;3.42;;;13.00;99.90;;;;;;4969915;28;20251;-80
2023/10/02 12:32:42;;;;;;;12.73;3.53;;;12.90;99.90;;;;;;4966171;28;20262;-81
2023/10/02 12:35:09;;;;;;;9.77;3.30;;;12.90;99.90;;;;;;4970283;28;20218;-81
2023/10/02 12:37:38;;;;;;;10.75;3.47;;;12.90;99.90;;;;;;4948070;28;20201;-81
2023/10/02 12:40:12;;;;;;;10.45;3.88;;;12.90;99.90;;;;;;4969768;28;20192;-81
2023/10/02 12:42:40;;;;;;;12.43;3.78;;;12.90;99.90;;;;;;4969365;28;20191;-81
2023/10/02 12:45:09;;;;;;;9.23;3.60;;;12.80;99.90;;;;;;4970260;28;20654;-81
2023/10/02 12:47:38;;;;;;;13.00;3.88;;;12.90;99.90;;;;;;4970067;28;20212;-81
2023/10/02 12:50:10;;;;;;;15.15;3.60;;;12.90;99.90;;;;;;4970399;28;20192;-81
2023/10/02 12:52:40;;;;;;;12.30;3.90;;;12.90;99.90;;;;;;4970123;28;20183;-81
2023/10/02 12:55:09;;;;;;;10.77;4.13;;;13.00;99.90;;;;;;4970022;28;20180;-82
2023/10/02 12:57:37;;;;;;;13.57;4.30;;;13.00;99.90;;;;;;4970190;28;20616;-81
2023/10/02 13:00:18;;;;;;;10.90;4.07;;;13.00;99.90;;;;;;4939419;28;20199;-81
2023/10/02 13:02:47;;;;;;;15.43;4.30;;;13.10;99.90;;;;;;4960912;28;20569;-81
2023/10/02 13:05:14;;;;;;;12.77;3.60;;;13.10;99.90;;;;;;4951562;28;20258;-81
2023/10/02 13:07:45;;;;;;;12.27;3.80;;;13.10;99.90;;;;;;4969760;28;20698;-82
2023/10/02 13:10:14;;;;;;;11.10;3.53;;;13.10;99.90;;;;;;4965190;28;20258;-81
2023/10/02 13:12:42;;;;;;;11.52;4.25;;;13.10;99.90;;;;;;4970136;28;20243;-81
2023/10/02 13:15:13;;;;;;;13.50;3.67;;;13.20;99.90;;;;;;4962973;28;20195;-80
2023/10/02 13:17:42;;;;;;;9.93;3.67;;;13.20;99.90;;;;;;4969956;28;20203;-81
2023/10/02 13:20:10;;;;;;;9.07;3.38;;;13.20;99.90;;;;;;4949590;29;20193;-80
2023/10/02 13:22:38;;;;;;;10.13;3.78;;;13.20;99.90;;;;;;4967846;28;20191;-82
2023/10/02 13:25:11;;;;;;;10.35;3.55;;;13.20;99.90;;;;;;4970724;28;20194;-81
2023/10/02 13:27:43;;;;;;;12.25;4.22;;;13.30;99.90;;;;;;4943324;28;20274;-81
2023/10/02 13:30:18;;;;;;;12.48;4.18;;;13.30;99.90;;;;;;4972009;28;20188;-81
2023/10/02 13:32:47;;;;;;;10.20;4.10;;;13.30;99.90;;;;;;4950088;29;20648;-81
2023/10/02 13:35:15;;;;;;;10.13;3.70;;;13.30;99.90;;;;;;4968591;28;20187;-82
2023/10/02 13:37:43;;;;;;;12.15;3.95;;;13.30;99.90;;;;;;4940022;28;20199;-81
2023/10/02 13:40:18;;;;;;;16.05;5.07;;;13.30;99.90;;;;;;4973561;28;20230;-81
2023/10/02 13:42:49;;;;;;;11.23;4.43;;;13.30;99.90;;;;;;4956085;28;20195;-81
2023/10/02 13:45:21;;;;;;;13.63;3.85;;;13.30;99.90;;;;;;4974162;28;20195;-82
2023/10/02 13:47:48;;;;;;;14.90;4.10;;;13.30;99.90;;;;;;4955386;28;20603;-81
2023/10/02 13:50:16;;;;;;;13.40;4.13;;;13.30;99.90;;;;;;4973683;28;20266;-81
2023/10/02 13:52:48;;;;;;;12.77;4.22;;;13.30;99.90;;;;;;4973099;28;20199;-81
2023/10/02 13:55:22;;;;;;;9.35;3.83;;;13.30;99.90;;;;;;4956249;28;20184;-82
2023/10/02 13:57:50;;;;;;;12.73;4.57;;;13.30;99.90;;;;;;4955739;28;20200;-81
2023/10/02 14:00:21;;;;;;;15.10;4.93;;;13.30;99.90;;;;;;4955924;28;20195;-81
2023/10/02 14:02:53;;;;;;;10.80;4.20;;;13.30;99.90;;;;;;4933109;29;20208;-81
2023/10/02 14:05:20;;;;;;;13.07;4.53;;;13.30;99.90;;;;;;4967330;28;20196;-81
2023/10/02 14:07:48;;;;;;;11.50;4.70;;;13.30;99.90;;;;;;4972611;28;20768;-82
2023/10/02 14:10:17;;;;;;;11.82;4.82;;;13.30;99.90;;;;;;4972045;28;20188;-81
2023/10/02 14:12:46;;;;;;;21.23;5.18;;;13.30;99.90;;;;;;4971668;28;20674;-82
2023/10/02 14:15:16;;;;;;;13.27;5.03;;;13.30;99.90;;;;;;4971238;28;20184;-82
2023/10/02 14:17:49;;;;;;;11.73;4.97;;;13.30;99.90;;;;;;4970519;28;20717;-82
2023/10/02 14:20:18;;;;;;;13.15;4.72;;;13.30;99.90;;;;;;4971627;28;20202;-82
2023/10/02 14:22:49;;;;;;;11.80;4.20;;;13.20;99.90;;;;;;4953488;28;20706;-82